sensor_id;sensor_type;location;lat;lon;timestamp;temperature;humidity
463;DHT22;218;51.902;9.542;2023-08-21T00:00:39;24.80;1.00
463;DHT22;218;51.902;9.542;2023-08-21T00:03:05;24.80;1.00
463;DHT22;218;51.902;9.542;2023-08-21T00:05:34;24.80;1.00
463;DHT22;218;51.902;9.542;2023-08-21T00:08:07;24.70;1.00
463;DHT22;218;51.902;9.542;2023-08-21T00:10:37;24.70;1.00
463;DHT22;218;51.902;9.542;2023-08-21T00:13:04;24.70;1.00
463;DHT22;218;51.902;9.542;2023-08-21T00:15:31;24.70;1.00
463;DHT22;218;51.902;9.542;2023-08-21T00:17:58;24.60;1.00
463;DHT22;218;51.902;9.542;2023-08-21T00:20:26;24.60;1.00
463;DHT22;218;51.902;9.542;2023-08-21T00:23:12;24.50;1.00
463;DHT22;218;51.902;9.542;2023-08-21T00:25:39;24.50;1.00
463;DHT22;218;51.902;9.542;2023-08-21T00:28:06;24.50;1.00
463;DHT22;218;51.902;9.542;2023-08-21T00:30:33;24.50;1.00
463;DHT22;218;51.902;9.542;2023-08-21T00:33:03;24.40;1.00
463;DHT22;218;51.902;9.542;2023-08-21T00:35:29;24.40;1.00
463;DHT22;218;51.902;9.542;2023-08-21T00:37:56;24.40;1.00
463;DHT22;218;51.902;9.542;2023-08-21T00:40:25;24.40;1.00
463;DHT22;218;51.902;9.542;2023-08-21T00:42:51;24.40;1.00
463;DHT22;218;51.902;9.542;2023-08-21T00:45:18;24.40;1.00
463;DHT22;218;51.902;9.542;2023-08-21T00:47:45;24.30;1.00
463;DHT22;218;51.902;9.542;2023-08-21T00:50:12;24.30;1.00
463;DHT22;218;51.902;9.542;2023-08-21T00:52:47;24.30;1.00
463;DHT22;218;51.902;9.542;2023-08-21T00:55:14;24.30;1.00
463;DHT22;218;51.902;9.542;2023-08-21T00:57:43;24.30;1.00
463;DHT22;218;51.902;9.542;2023-08-21T01:00:12;24.30;1.00
463;DHT22;218;51.902;9.542;2023-08-21T01:02:39;24.20;1.00
463;DHT22;218;51.902;9.542;2023-08-21T01:05:08;24.20;1.00
463;DHT22;218;51.902;9.542;2023-08-21T01:07:40;24.20;1.00
463;DHT22;218;51.902;9.542;2023-08-21T01:10:13;24.20;1.00
463;DHT22;218;51.902;9.542;2023-08-21T01:12:51;24.20;1.00
463;DHT22;218;51.902;9.542;2023-08-21T01:15:23;24.20;1.00
463;DHT22;218;51.902;9.542;2023-08-21T01:17:51;24.10;1.00
463;DHT22;218;51.902;9.542;2023-08-21T01:20:19;24.10;1.00
463;DHT22;218;51.902;9.542;2023-08-21T01:22:46;24.10;1.00
463;DHT22;218;51.902;9.542;2023-08-21T01:25:15;24.10;1.00
463;DHT22;218;51.902;9.542;2023-08-21T01:27:48;24.00;1.00
463;DHT22;218;51.902;9.542;2023-08-21T01:30:16;24.00;1.00
463;DHT22;218;51.902;9.542;2023-08-21T01:32:53;24.00;1.00
463;DHT22;218;51.902;9.542;2023-08-21T01:35:23;24.00;1.00
463;DHT22;218;51.902;9.542;2023-08-21T01:37:51;23.90;1.00
463;DHT22;218;51.902;9.542;2023-08-21T01:40:22;23.90;1.00
463;DHT22;218;51.902;9.542;2023-08-21T01:42:49;23.90;1.00
463;DHT22;218;51.902;9.542;2023-08-21T01:45:16;23.80;1.00
463;DHT22;218;51.902;9.542;2023-08-21T01:47:46;23.90;1.00
463;DHT22;218;51.902;9.542;2023-08-21T01:50:13;23.80;1.00
463;DHT22;218;51.902;9.542;2023-08-21T01:52:40;23.80;1.00
463;DHT22;218;51.902;9.542;2023-08-21T01:55:07;23.80;1.00
463;DHT22;218;51.902;9.542;2023-08-21T01:57:38;23.70;1.00
463;DHT22;218;51.902;9.542;2023-08-21T02:00:06;23.70;1.00
463;DHT22;218;51.902;9.542;2023-08-21T02:02:33;23.70;1.00
463;DHT22;218;51.902;9.542;2023-08-21T02:05:00;23.60;1.00
463;DHT22;218;51.902;9.542;2023-08-21T02:07:46;23.60;1.00
463;DHT22;218;51.902;9.542;2023-08-21T02:10:13;23.60;1.00
463;DHT22;218;51.902;9.542;2023-08-21T02:12:41;23.50;1.00
463;DHT22;218;51.902;9.542;2023-08-21T02:15:09;23.50;1.00
463;DHT22;218;51.902;9.542;2023-08-21T02:17:40;23.50;1.00
463;DHT22;218;51.902;9.542;2023-08-21T02:20:09;23.40;1.00
463;DHT22;218;51.902;9.542;2023-08-21T02:22:36;23.40;1.00
463;DHT22;218;51.902;9.542;2023-08-21T02:25:03;23.40;1.00
463;DHT22;218;51.902;9.542;2023-08-21T02:27:47;23.30;1.00
463;DHT22;218;51.902;9.542;2023-08-21T02:30:14;23.30;1.00
463;DHT22;218;51.902;9.542;2023-08-21T02:32:41;23.20;1.00
463;DHT22;218;51.902;9.542;2023-08-21T02:35:08;23.20;1.00
463;DHT22;218;51.902;9.542;2023-08-21T02:37:38;23.20;1.00
463;DHT22;218;51.902;9.542;2023-08-21T02:40:06;23.10;1.00
463;DHT22;218;51.902;9.542;2023-08-21T02:42:35;23.10;1.00
463;DHT22;218;51.902;9.542;2023-08-21T02:45:03;23.10;1.00
463;DHT22;218;51.902;9.542;2023-08-21T02:47:45;23.00;1.00
463;DHT22;218;51.902;9.542;2023-08-21T02:50:12;23.00;1.00
463;DHT22;218;51.902;9.542;2023-08-21T02:55:07;23.00;1.00
463;DHT22;218;51.902;9.542;2023-08-21T02:57:37;22.90;1.00
463;DHT22;218;51.902;9.542;2023-08-21T03:00:06;22.80;1.00
463;DHT22;218;51.902;9.542;2023-08-21T03:02:49;22.70;1.00
463;DHT22;218;51.902;9.542;2023-08-21T03:05:16;22.70;1.00
463;DHT22;218;51.902;9.542;2023-08-21T03:07:43;22.70;1.00
463;DHT22;218;51.902;9.542;2023-08-21T03:12:40;22.60;1.00
463;DHT22;218;51.902;9.542;2023-08-21T03:15:08;22.60;1.00
463;DHT22;218;51.902;9.542;2023-08-21T03:17:35;22.60;1.00
463;DHT22;218;51.902;9.542;2023-08-21T03:20:03;22.50;1.00
463;DHT22;218;51.902;9.542;2023-08-21T03:23:02;22.50;1.00
463;DHT22;218;51.902;9.542;2023-08-21T03:25:28;22.50;1.00
463;DHT22;218;51.902;9.542;2023-08-21T03:27:55;22.50;1.00
463;DHT22;218;51.902;9.542;2023-08-21T03:30:24;22.40;1.00
463;DHT22;218;51.902;9.542;2023-08-21T03:32:50;22.30;1.00
463;DHT22;218;51.902;9.542;2023-08-21T03:35:17;22.30;1.00
463;DHT22;218;51.902;9.542;2023-08-21T03:37:44;22.40;1.00
463;DHT22;218;51.902;9.542;2023-08-21T03:40:11;22.40;1.00
463;DHT22;218;51.902;9.542;2023-08-21T03:45:12;22.30;1.00
463;DHT22;218;51.902;9.542;2023-08-21T03:47:43;22.30;1.00
463;DHT22;218;51.902;9.542;2023-08-21T03:55:05;22.20;1.00
463;DHT22;218;51.902;9.542;2023-08-21T03:57:32;22.10;1.00
463;DHT22;218;51.902;9.542;2023-08-21T03:59:58;22.10;1.00
463;DHT22;218;51.902;9.542;2023-08-21T04:02:25;22.10;1.00
463;DHT22;218;51.902;9.542;2023-08-21T04:04:54;22.10;1.00
463;DHT22;218;51.902;9.542;2023-08-21T04:07:20;22.10;1.00
463;DHT22;218;51.902;9.542;2023-08-21T04:09:47;22.00;1.00
463;DHT22;218;51.902;9.542;2023-08-21T04:14:41;22.00;1.00
463;DHT22;218;51.902;9.542;2023-08-21T04:17:08;22.00;1.00
463;DHT22;218;51.902;9.542;2023-08-21T04:19:35;22.00;1.00
463;DHT22;218;51.902;9.542;2023-08-21T04:22:03;21.90;1.00
463;DHT22;218;51.902;9.542;2023-08-21T04:24:30;21.90;1.00
463;DHT22;218;51.902;9.542;2023-08-21T04:26:57;21.90;1.00
463;DHT22;218;51.902;9.542;2023-08-21T04:29:24;21.80;1.00
463;DHT22;218;51.902;9.542;2023-08-21T04:31:51;21.80;1.00
463;DHT22;218;51.902;9.542;2023-08-21T04:34:18;21.90;1.00
463;DHT22;218;51.902;9.542;2023-08-21T04:36:45;21.80;1.00
463;DHT22;218;51.902;9.542;2023-08-21T04:39:13;21.70;1.00
463;DHT22;218;51.902;9.542;2023-08-21T04:41:40;21.80;1.00
463;DHT22;218;51.902;9.542;2023-08-21T04:44:07;21.70;1.00
463;DHT22;218;51.902;9.542;2023-08-21T04:46:33;21.60;1.00
463;DHT22;218;51.902;9.542;2023-08-21T04:49:00;21.70;1.00
463;DHT22;218;51.902;9.542;2023-08-21T04:51:27;21.60;1.00
463;DHT22;218;51.902;9.542;2023-08-21T04:56:23;21.60;1.00
463;DHT22;218;51.902;9.542;2023-08-21T05:01:17;21.50;1.00
463;DHT22;218;51.902;9.542;2023-08-21T05:03:43;21.50;1.00
463;DHT22;218;51.902;9.542;2023-08-21T05:06:10;21.50;1.00
463;DHT22;218;51.902;9.542;2023-08-21T05:13:33;21.50;1.00
463;DHT22;218;51.902;9.542;2023-08-21T05:16:01;21.30;1.00
463;DHT22;218;51.902;9.542;2023-08-21T05:18:27;21.30;1.00
463;DHT22;218;51.902;9.542;2023-08-21T05:20:55;21.30;1.00
463;DHT22;218;51.902;9.542;2023-08-21T05:23:22;21.40;1.00
463;DHT22;218;51.902;9.542;2023-08-21T05:25:49;21.30;1.00
463;DHT22;218;51.902;9.542;2023-08-21T05:28:16;21.30;1.00
463;DHT22;218;51.902;9.542;2023-08-21T05:30:46;21.40;1.00
463;DHT22;218;51.902;9.542;2023-08-21T05:33:13;21.30;1.00
463;DHT22;218;51.902;9.542;2023-08-21T05:38:08;21.30;1.00
463;DHT22;218;51.902;9.542;2023-08-21T05:40:35;21.30;1.00
463;DHT22;218;51.902;9.542;2023-08-21T07:52:44;24.30;1.00
463;DHT22;218;51.902;9.542;2023-08-21T07:55:11;24.50;1.00
463;DHT22;218;51.902;9.542;2023-08-21T07:57:41;24.50;1.00
463;DHT22;218;51.902;9.542;2023-08-21T08:00:09;24.50;1.00
463;DHT22;218;51.902;9.542;2023-08-21T08:02:38;24.60;1.00
463;DHT22;218;51.902;9.542;2023-08-21T08:05:06;24.80;1.00
463;DHT22;218;51.902;9.542;2023-08-21T08:07:48;24.80;1.00
463;DHT22;218;51.902;9.542;2023-08-21T08:10:15;24.90;1.00
463;DHT22;218;51.902;9.542;2023-08-21T08:12:42;24.90;1.00
463;DHT22;218;51.902;9.542;2023-08-21T08:15:10;25.00;1.00
463;DHT22;218;51.902;9.542;2023-08-21T08:17:41;25.10;1.00
463;DHT22;218;51.902;9.542;2023-08-21T08:20:09;25.20;1.00
463;DHT22;218;51.902;9.542;2023-08-21T08:22:36;25.30;1.00
463;DHT22;218;51.902;9.542;2023-08-21T08:25:03;25.40;1.00
463;DHT22;218;51.902;9.542;2023-08-21T08:27:46;25.50;1.00
463;DHT22;218;51.902;9.542;2023-08-21T08:30:15;25.70;1.00
463;DHT22;218;51.902;9.542;2023-08-21T08:32:43;25.80;1.00
463;DHT22;218;51.902;9.542;2023-08-21T08:35:11;25.80;1.00
463;DHT22;218;51.902;9.542;2023-08-21T08:37:37;26.00;1.00
463;DHT22;218;51.902;9.542;2023-08-21T08:40:06;26.10;1.00
463;DHT22;218;51.902;9.542;2023-08-21T08:42:34;26.20;1.00
463;DHT22;218;51.902;9.542;2023-08-21T08:45:02;26.30;1.00
463;DHT22;218;51.902;9.542;2023-08-21T08:47:46;26.40;1.00
463;DHT22;218;51.902;9.542;2023-08-21T08:50:13;26.60;1.00
463;DHT22;218;51.902;9.542;2023-08-21T08:52:41;26.60;1.00
463;DHT22;218;51.902;9.542;2023-08-21T08:55:08;26.70;1.00
463;DHT22;218;51.902;9.542;2023-08-21T08:57:36;26.80;1.00
463;DHT22;218;51.902;9.542;2023-08-21T09:00:04;27.00;1.00
463;DHT22;218;51.902;9.542;2023-08-21T09:02:31;27.10;1.00
463;DHT22;218;51.902;9.542;2023-08-21T09:04:59;27.20;1.00
463;DHT22;218;51.902;9.542;2023-08-21T09:07:42;27.30;1.00
463;DHT22;218;51.902;9.542;2023-08-21T09:10:13;27.40;1.00
463;DHT22;218;51.902;9.542;2023-08-21T09:12:41;27.50;1.00
463;DHT22;218;51.902;9.542;2023-08-21T09:15:08;27.60;1.00
463;DHT22;218;51.902;9.542;2023-08-21T09:17:35;27.70;1.00
463;DHT22;218;51.902;9.542;2023-08-21T09:20:07;27.80;1.00
463;DHT22;218;51.902;9.542;2023-08-21T09:22:53;27.90;1.00
463;DHT22;218;51.902;9.542;2023-08-21T09:25:20;28.00;1.00
463;DHT22;218;51.902;9.542;2023-08-21T09:27:51;28.10;1.00
463;DHT22;218;51.902;9.542;2023-08-21T09:30:19;28.20;1.00
463;DHT22;218;51.902;9.542;2023-08-21T09:33:10;28.30;1.00
463;DHT22;218;51.902;9.542;2023-08-21T09:35:38;28.40;1.00
463;DHT22;218;51.902;9.542;2023-08-21T09:38:07;28.40;1.00
463;DHT22;218;51.902;9.542;2023-08-21T09:40:35;28.50;1.00
463;DHT22;218;51.902;9.542;2023-08-21T09:43:32;28.60;1.00
463;DHT22;218;51.902;9.542;2023-08-21T09:46:07;28.70;1.00
463;DHT22;218;51.902;9.542;2023-08-21T09:48:34;28.70;1.00
463;DHT22;218;51.902;9.542;2023-08-21T09:51:03;28.70;1.00
463;DHT22;218;51.902;9.542;2023-08-21T09:53:40;28.80;1.00
463;DHT22;218;51.902;9.542;2023-08-21T09:56:07;28.80;1.00
463;DHT22;218;51.902;9.542;2023-08-21T09:58:35;28.90;1.00
463;DHT22;218;51.902;9.542;2023-08-21T10:01:05;29.00;1.00
463;DHT22;218;51.902;9.542;2023-08-21T10:03:49;29.00;1.00
463;DHT22;218;51.902;9.542;2023-08-21T10:06:19;29.10;1.00
463;DHT22;218;51.902;9.542;2023-08-21T10:08:48;29.10;1.00
463;DHT22;218;51.902;9.542;2023-08-21T10:11:19;29.20;1.00
463;DHT22;218;51.902;9.542;2023-08-21T10:13:46;29.30;1.00
463;DHT22;218;51.902;9.542;2023-08-21T10:16:16;29.40;1.00
463;DHT22;218;51.902;9.542;2023-08-21T10:18:45;29.40;1.00
463;DHT22;218;51.902;9.542;2023-08-21T10:21:13;29.40;1.00
463;DHT22;218;51.902;9.542;2023-08-21T10:23:48;29.50;1.00
463;DHT22;218;51.902;9.542;2023-08-21T10:26:18;29.60;1.00
463;DHT22;218;51.902;9.542;2023-08-21T10:28:49;29.60;1.00
463;DHT22;218;51.902;9.542;2023-08-21T10:31:27;29.70;1.00
463;DHT22;218;51.902;9.542;2023-08-21T10:33:54;29.80;1.00
463;DHT22;218;51.902;9.542;2023-08-21T10:39:29;30.00;1.00
463;DHT22;218;51.902;9.542;2023-08-21T10:42:01;30.00;1.00
463;DHT22;218;51.902;9.542;2023-08-21T10:44:52;30.10;1.00
463;DHT22;218;51.902;9.542;2023-08-21T10:47:22;30.10;1.00
463;DHT22;218;51.902;9.542;2023-08-21T10:50:08;30.20;1.00
463;DHT22;218;51.902;9.542;2023-08-21T10:52:37;30.20;1.00
463;DHT22;218;51.902;9.542;2023-08-21T10:55:07;30.30;1.00
463;DHT22;218;51.902;9.542;2023-08-21T10:57:47;30.40;1.00
463;DHT22;218;51.902;9.542;2023-08-21T11:00:16;30.50;1.00
463;DHT22;218;51.902;9.542;2023-08-21T11:02:45;30.50;1.00
463;DHT22;218;51.902;9.542;2023-08-21T11:05:13;30.60;1.00
463;DHT22;218;51.902;9.542;2023-08-21T11:07:42;30.70;1.00
463;DHT22;218;51.902;9.542;2023-08-21T11:10:12;30.80;1.00
463;DHT22;218;51.902;9.542;2023-08-21T11:12:49;30.80;1.00
463;DHT22;218;51.902;9.542;2023-08-21T11:15:16;30.90;1.00
463;DHT22;218;51.902;9.542;2023-08-21T11:17:54;30.90;1.00
463;DHT22;218;51.902;9.542;2023-08-21T11:20:21;30.90;1.00
463;DHT22;218;51.902;9.542;2023-08-21T11:22:48;30.90;1.00
463;DHT22;218;51.902;9.542;2023-08-21T11:25:16;30.90;1.00
463;DHT22;218;51.902;9.542;2023-08-21T11:27:43;30.90;1.00
463;DHT22;218;51.902;9.542;2023-08-21T11:30:11;30.90;1.00
463;DHT22;218;51.902;9.542;2023-08-21T11:32:39;30.90;1.00
463;DHT22;218;51.902;9.542;2023-08-21T11:35:06;30.90;1.00
463;DHT22;218;51.902;9.542;2023-08-21T11:37:46;31.00;1.00
463;DHT22;218;51.902;9.542;2023-08-21T11:40:13;31.00;1.00
463;DHT22;218;51.902;9.542;2023-08-21T11:42:42;31.00;1.00
463;DHT22;218;51.902;9.542;2023-08-21T11:45:10;31.10;1.00
463;DHT22;218;51.902;9.542;2023-08-21T11:47:37;31.10;1.00
463;DHT22;218;51.902;9.542;2023-08-21T11:50:07;31.20;1.00
463;DHT22;218;51.902;9.542;2023-08-21T11:52:36;31.30;1.00
463;DHT22;218;51.902;9.542;2023-08-21T11:55:07;31.40;1.00
463;DHT22;218;51.902;9.542;2023-08-21T11:57:49;31.40;1.00
463;DHT22;218;51.902;9.542;2023-08-21T12:00:17;31.60;1.00
463;DHT22;218;51.902;9.542;2023-08-21T12:02:58;31.60;1.00
463;DHT22;218;51.902;9.542;2023-08-21T12:05:26;31.70;1.00
463;DHT22;218;51.902;9.542;2023-08-21T12:08:09;31.80;1.00
463;DHT22;218;51.902;9.542;2023-08-21T12:10:36;31.80;1.00
463;DHT22;218;51.902;9.542;2023-08-21T12:13:04;31.90;1.00
463;DHT22;218;51.902;9.542;2023-08-21T12:15:31;32.00;1.00
463;DHT22;218;51.902;9.542;2023-08-21T12:17:58;32.10;1.00
463;DHT22;218;51.902;9.542;2023-08-21T12:20:25;32.20;1.00
463;DHT22;218;51.902;9.542;2023-08-21T12:22:52;32.30;1.00
463;DHT22;218;51.902;9.542;2023-08-21T12:25:18;32.40;1.00
463;DHT22;218;51.902;9.542;2023-08-21T12:27:45;32.40;1.00
463;DHT22;218;51.902;9.542;2023-08-21T12:30:14;32.50;1.00
463;DHT22;218;51.902;9.542;2023-08-21T12:32:46;32.50;1.00
463;DHT22;218;51.902;9.542;2023-08-21T12:35:13;32.50;1.00
463;DHT22;218;51.902;9.542;2023-08-21T12:37:43;32.50;1.00
463;DHT22;218;51.902;9.542;2023-08-21T12:40:10;32.50;1.00
463;DHT22;218;51.902;9.542;2023-08-21T12:42:37;32.50;1.00
463;DHT22;218;51.902;9.542;2023-08-21T12:45:05;32.50;1.00
463;DHT22;218;51.902;9.542;2023-08-21T12:47:36;32.40;1.00
463;DHT22;218;51.902;9.542;2023-08-21T12:50:03;32.50;1.00
463;DHT22;218;51.902;9.542;2023-08-21T12:52:46;32.40;1.00
463;DHT22;218;51.902;9.542;2023-08-21T12:55:12;32.40;1.00
463;DHT22;218;51.902;9.542;2023-08-21T12:57:42;32.40;1.00
463;DHT22;218;51.902;9.542;2023-08-21T13:00:10;32.40;1.00
463;DHT22;218;51.902;9.542;2023-08-21T13:02:40;32.40;1.00
463;DHT22;218;51.902;9.542;2023-08-21T13:05:07;32.50;1.00
463;DHT22;218;51.902;9.542;2023-08-21T13:07:34;32.50;1.00
463;DHT22;218;51.902;9.542;2023-08-21T13:10:01;32.60;1.00
463;DHT22;218;51.902;9.542;2023-08-21T13:12:46;32.70;1.00
463;DHT22;218;51.902;9.542;2023-08-21T13:15:12;32.70;1.00
463;DHT22;218;51.902;9.542;2023-08-21T13:17:44;32.80;1.00
463;DHT22;218;51.902;9.542;2023-08-21T13:20:11;32.90;1.00
463;DHT22;218;51.902;9.542;2023-08-21T13:22:45;32.90;1.00
463;DHT22;218;51.902;9.542;2023-08-21T13:25:12;32.90;1.00
463;DHT22;218;51.902;9.542;2023-08-21T13:27:39;32.80;1.00
463;DHT22;218;51.902;9.542;2023-08-21T13:30:07;32.90;1.00
463;DHT22;218;51.902;9.542;2023-08-21T13:32:44;32.90;1.00
463;DHT22;218;51.902;9.542;2023-08-21T13:35:11;32.90;1.00
463;DHT22;218;51.902;9.542;2023-08-21T13:37:42;32.90;1.00
463;DHT22;218;51.902;9.542;2023-08-21T13:40:09;33.00;1.00
463;DHT22;218;51.902;9.542;2023-08-21T13:42:40;33.00;1.00
463;DHT22;218;51.902;9.542;2023-08-21T13:45:08;33.00;1.00
463;DHT22;218;51.902;9.542;2023-08-21T13:47:37;33.00;1.00
463;DHT22;218;51.902;9.542;2023-08-21T13:50:06;33.10;1.00
463;DHT22;218;51.902;9.542;2023-08-21T13:52:46;33.10;1.00
463;DHT22;218;51.902;9.542;2023-08-21T13:55:14;33.10;1.00
463;DHT22;218;51.902;9.542;2023-08-21T13:57:41;33.10;1.00
463;DHT22;218;51.902;9.542;2023-08-21T14:00:10;33.10;1.00
463;DHT22;218;51.902;9.542;2023-08-21T14:02:38;33.20;1.00
463;DHT22;218;51.902;9.542;2023-08-21T14:05:08;33.10;1.00
463;DHT22;218;51.902;9.542;2023-08-21T14:07:35;33.10;1.00
463;DHT22;218;51.902;9.542;2023-08-21T14:10:03;33.10;1.00
463;DHT22;218;51.902;9.542;2023-08-21T14:12:43;33.10;1.00
463;DHT22;218;51.902;9.542;2023-08-21T14:15:10;33.10;1.00
463;DHT22;218;51.902;9.542;2023-08-21T14:17:40;33.10;1.00
463;DHT22;218;51.902;9.542;2023-08-21T14:20:09;33.10;1.00
463;DHT22;218;51.902;9.542;2023-08-21T14:22:38;33.10;1.00
463;DHT22;218;51.902;9.542;2023-08-21T14:25:05;33.20;1.00
463;DHT22;218;51.902;9.542;2023-08-21T14:27:47;33.20;1.00
463;DHT22;218;51.902;9.542;2023-08-21T14:30:15;33.20;1.00
463;DHT22;218;51.902;9.542;2023-08-21T14:32:42;33.30;1.00
463;DHT22;218;51.902;9.542;2023-08-21T14:35:10;33.30;1.00
463;DHT22;218;51.902;9.542;2023-08-21T14:37:37;33.40;1.00
463;DHT22;218;51.902;9.542;2023-08-21T14:40:06;33.50;1.00
463;DHT22;218;51.902;9.542;2023-08-21T14:42:35;33.50;1.00
463;DHT22;218;51.902;9.542;2023-08-21T14:45:02;33.50;1.00
463;DHT22;218;51.902;9.542;2023-08-21T14:47:29;33.50;1.00
463;DHT22;218;51.902;9.542;2023-08-21T14:49:56;33.60;1.00
463;DHT22;218;51.902;9.542;2023-08-21T14:52:42;33.60;1.00
463;DHT22;218;51.902;9.542;2023-08-21T14:55:09;33.60;1.00
463;DHT22;218;51.902;9.542;2023-08-21T14:57:36;33.70;1.00
463;DHT22;218;51.902;9.542;2023-08-21T15:00:03;33.70;1.00
463;DHT22;218;51.902;9.542;2023-08-21T15:02:34;33.80;1.00
463;DHT22;218;51.902;9.542;2023-08-21T15:05:01;33.80;1.00
463;DHT22;218;51.902;9.542;2023-08-21T15:07:30;33.80;1.00
463;DHT22;218;51.902;9.542;2023-08-21T15:09:58;33.90;1.00
463;DHT22;218;51.902;9.542;2023-08-21T15:12:41;33.90;1.00
463;DHT22;218;51.902;9.542;2023-08-21T15:15:09;33.90;1.00
463;DHT22;218;51.902;9.542;2023-08-21T15:17:37;34.10;1.00
463;DHT22;218;51.902;9.542;2023-08-21T15:20:04;34.00;1.00
463;DHT22;218;51.902;9.542;2023-08-21T15:22:32;34.00;1.00
463;DHT22;218;51.902;9.542;2023-08-21T15:25:00;34.10;1.00
463;DHT22;218;51.902;9.542;2023-08-21T15:27:44;34.00;1.00
463;DHT22;218;51.902;9.542;2023-08-21T15:30:11;33.90;1.00
463;DHT22;218;51.902;9.542;2023-08-21T15:32:41;33.80;1.00
463;DHT22;218;51.902;9.542;2023-08-21T15:35:10;33.70;1.00
463;DHT22;218;51.902;9.542;2023-08-21T15:37:37;33.70;1.00
463;DHT22;218;51.902;9.542;2023-08-21T15:40:06;33.60;1.00
463;DHT22;218;51.902;9.542;2023-08-21T15:42:33;33.50;1.00
463;DHT22;218;51.902;9.542;2023-08-21T15:45:00;33.40;1.00
463;DHT22;218;51.902;9.542;2023-08-21T15:47:42;33.30;1.00
463;DHT22;218;51.902;9.542;2023-08-21T15:50:09;33.30;1.00
463;DHT22;218;51.902;9.542;2023-08-21T15:52:40;33.10;1.00
463;DHT22;218;51.902;9.542;2023-08-21T15:55:09;33.10;1.00
463;DHT22;218;51.902;9.542;2023-08-21T15:57:36;33.00;1.00
463;DHT22;218;51.902;9.542;2023-08-21T16:00:03;32.90;1.00
463;DHT22;218;51.902;9.542;2023-08-21T16:02:31;32.90;1.00
463;DHT22;218;51.902;9.542;2023-08-21T16:04:58;32.80;1.00
463;DHT22;218;51.902;9.542;2023-08-21T16:07:43;32.70;1.00
463;DHT22;218;51.902;9.542;2023-08-21T16:10:12;32.60;1.00
463;DHT22;218;51.902;9.542;2023-08-21T16:12:39;32.50;1.00
463;DHT22;218;51.902;9.542;2023-08-21T16:15:07;32.50;1.00
463;DHT22;218;51.902;9.542;2023-08-21T16:17:34;32.40;1.00
463;DHT22;218;51.902;9.542;2023-08-21T16:20:02;32.30;1.00
463;DHT22;218;51.902;9.542;2023-08-21T16:22:30;32.20;1.00
463;DHT22;218;51.902;9.542;2023-08-21T16:24:57;32.10;1.00
463;DHT22;218;51.902;9.542;2023-08-21T16:27:58;32.10;1.00
463;DHT22;218;51.902;9.542;2023-08-21T16:30:25;32.00;1.00
463;DHT22;218;51.902;9.542;2023-08-21T16:33:22;32.00;1.00
463;DHT22;218;51.902;9.542;2023-08-21T16:35:49;31.90;1.00
463;DHT22;218;51.902;9.542;2023-08-21T16:38:16;31.80;1.00
463;DHT22;218;51.902;9.542;2023-08-21T16:40:43;31.80;1.00
463;DHT22;218;51.902;9.542;2023-08-21T16:43:11;31.80;1.00
463;DHT22;218;51.902;9.542;2023-08-21T16:45:38;31.70;1.00
463;DHT22;218;51.902;9.542;2023-08-21T16:48:11;31.60;1.00
463;DHT22;218;51.902;9.542;2023-08-21T16:50:39;31.60;1.00
463;DHT22;218;51.902;9.542;2023-08-21T16:53:06;31.60;1.00
463;DHT22;218;51.902;9.542;2023-08-21T16:55:33;31.60;1.00
463;DHT22;218;51.902;9.542;2023-08-21T16:58:00;31.50;1.00
463;DHT22;218;51.902;9.542;2023-08-21T17:00:29;31.50;1.00
463;DHT22;218;51.902;9.542;2023-08-21T17:02:56;31.50;1.00
463;DHT22;218;51.902;9.542;2023-08-21T17:05:24;31.50;1.00
463;DHT22;218;51.902;9.542;2023-08-21T17:07:51;31.40;1.00
463;DHT22;218;51.902;9.542;2023-08-21T17:10:18;31.40;1.00
463;DHT22;218;51.902;9.542;2023-08-21T17:12:45;31.30;1.00
463;DHT22;218;51.902;9.542;2023-08-21T17:15:12;31.30;1.00
463;DHT22;218;51.902;9.542;2023-08-21T17:17:42;30.90;1.00
463;DHT22;218;51.902;9.542;2023-08-21T17:20:09;30.60;1.00
463;DHT22;218;51.902;9.542;2023-08-21T17:22:36;30.20;1.00
463;DHT22;218;51.902;9.542;2023-08-21T17:25:03;29.90;1.00
463;DHT22;218;51.902;9.542;2023-08-21T17:27:31;29.70;1.00
463;DHT22;218;51.902;9.542;2023-08-21T17:29:58;29.50;1.00
463;DHT22;218;51.902;9.542;2023-08-21T17:32:25;29.30;1.00
463;DHT22;218;51.902;9.542;2023-08-21T17:34:53;29.10;1.00
463;DHT22;218;51.902;9.542;2023-08-21T17:37:20;28.90;1.00
463;DHT22;218;51.902;9.542;2023-08-21T17:39:47;28.80;1.00
463;DHT22;218;51.902;9.542;2023-08-21T17:42:13;28.60;1.00
463;DHT22;218;51.902;9.542;2023-08-21T17:44:40;28.50;1.00
463;DHT22;218;51.902;9.542;2023-08-21T17:47:07;28.30;1.00
463;DHT22;218;51.902;9.542;2023-08-21T17:49:34;28.20;1.00
463;DHT22;218;51.902;9.542;2023-08-21T17:52:02;28.10;1.00
463;DHT22;218;51.902;9.542;2023-08-21T17:54:30;27.90;1.00
463;DHT22;218;51.902;9.542;2023-08-21T17:56:57;27.80;1.00
463;DHT22;218;51.902;9.542;2023-08-21T17:59:24;27.70;1.00
463;DHT22;218;51.902;9.542;2023-08-21T18:01:50;27.60;1.00
463;DHT22;218;51.902;9.542;2023-08-21T18:04:18;27.50;1.00
463;DHT22;218;51.902;9.542;2023-08-21T18:06:45;27.30;1.00
463;DHT22;218;51.902;9.542;2023-08-21T18:09:13;27.20;1.00
463;DHT22;218;51.902;9.542;2023-08-21T18:12:18;27.10;1.00
463;DHT22;218;51.902;9.542;2023-08-21T18:14:45;27.00;1.00
463;DHT22;218;51.902;9.542;2023-08-21T18:17:12;26.80;1.00
463;DHT22;218;51.902;9.542;2023-08-21T18:19:39;26.70;1.00
463;DHT22;218;51.902;9.542;2023-08-21T18:22:06;26.60;1.00
463;DHT22;218;51.902;9.542;2023-08-21T18:24:34;26.40;1.00
463;DHT22;218;51.902;9.542;2023-08-21T18:27:01;26.30;1.00
463;DHT22;218;51.902;9.542;2023-08-21T18:29:29;26.20;1.00
463;DHT22;218;51.902;9.542;2023-08-21T18:32:18;26.10;1.00
463;DHT22;218;51.902;9.542;2023-08-21T18:34:46;26.00;1.00
463;DHT22;218;51.902;9.542;2023-08-21T18:37:13;25.80;1.00
463;DHT22;218;51.902;9.542;2023-08-21T18:39:41;25.70;1.00
463;DHT22;218;51.902;9.542;2023-08-21T18:42:08;25.60;1.00
463;DHT22;218;51.902;9.542;2023-08-21T18:44:34;25.50;1.00
463;DHT22;218;51.902;9.542;2023-08-21T18:47:01;25.40;1.00
463;DHT22;218;51.902;9.542;2023-08-21T18:49:29;25.30;1.00
463;DHT22;218;51.902;9.542;2023-08-21T18:51:56;25.10;1.00
463;DHT22;218;51.902;9.542;2023-08-21T18:54:23;25.10;1.00
463;DHT22;218;51.902;9.542;2023-08-21T18:56:52;25.00;1.00
463;DHT22;218;51.902;9.542;2023-08-21T18:59:19;24.90;1.00
463;DHT22;218;51.902;9.542;2023-08-21T19:01:46;24.90;1.00
463;DHT22;218;51.902;9.542;2023-08-21T19:04:12;24.70;1.00
463;DHT22;218;51.902;9.542;2023-08-21T19:06:39;24.60;1.00
463;DHT22;218;51.902;9.542;2023-08-21T19:09:06;24.50;1.00
463;DHT22;218;51.902;9.542;2023-08-21T19:11:33;24.40;1.00
463;DHT22;218;51.902;9.542;2023-08-21T19:14:01;24.30;1.00
463;DHT22;218;51.902;9.542;2023-08-21T19:16:28;24.20;1.00
463;DHT22;218;51.902;9.542;2023-08-21T19:18:55;24.20;1.00
463;DHT22;218;51.902;9.542;2023-08-21T19:21:22;24.10;1.00
463;DHT22;218;51.902;9.542;2023-08-21T19:23:49;24.00;1.00
463;DHT22;218;51.902;9.542;2023-08-21T19:26:16;24.00;1.00
463;DHT22;218;51.902;9.542;2023-08-21T19:28:43;24.00;1.00
463;DHT22;218;51.902;9.542;2023-08-21T19:31:11;24.00;1.00
463;DHT22;218;51.902;9.542;2023-08-21T19:33:38;24.00;1.00
463;DHT22;218;51.902;9.542;2023-08-21T19:36:11;24.00;1.00
463;DHT22;218;51.902;9.542;2023-08-21T19:38:39;23.90;1.00
463;DHT22;218;51.902;9.542;2023-08-21T19:41:26;24.00;1.00
463;DHT22;218;51.902;9.542;2023-08-21T19:43:53;24.30;1.00
463;DHT22;218;51.902;9.542;2023-08-21T19:46:21;24.40;1.00